Duncan, AZ

12:55 PM MST on Julyo 06, 2015 (GMT -0700)
APRSWXNET | | Change Station
CLOSE
Current Station
Personal Weather Stations
Location: Duncan, AZ
Elevation: 3815 ft
Nearby Weather Stations

Elev 3815 ft 32.75 °N, 109.08 °W | Updated 18 minutes ago

Clear
Clear
92 °F
Feels Like 92 °F
N
3
Hangin Variable Hangin from NW
Gusts 14.0 mph

Ngayon
High -- | Low -- °F
--% Chance of Precip.
Yesterday
High -- | Low -- °F
Precip. -- sa
5:14 AM 7:27 PM
Waning Gibbous, 73% visible
Pwersa 29.84 sa
Paningin 10.0 milya
Mga Ulap Clear
HeatIndex 92 °F
Hamog 60 °F
Humidito 34%
Rainfall sa
Snow Depth Not available.
UV 13 out of 12
Pollen 2.40 out of 12
Air Quality Not available.
Flu Activity Not available.
METAR KSAD 061951Z AUTO 29015G20KT 10SM CLR 34/14 A3000 RMK AO2 SLP103 T03440144

More Conditions Fewer Conditions

Pwersa 29.84 sa
Paningin 10.0 milya
Mga Ulap Clear
HeatIndex 92 °F
Hamog 60 °F
Humidito 34%
Rainfall sa
Snow Depth Not available.
UV 13 out of 12
Pollen 2.40 out of 12
Air Quality Not available.
Flu Activity Not available.
METAR KSAD 061951Z AUTO 29015G20KT 10SM CLR 34/14 A3000 RMK AO2 SLP103 T03440144

More Conditions Fewer Conditions

Nowcast | as of 10:25 am MST on July 6, 2015

Isolated showers and thunderstorms through late morning will increase in coverage and become scattered showers and thunderstorms early this afternoon. The best chance for these showers and thunderstorms will be near the mountains. Rainfall amounts will generally range from one tenth of an inch to one half of an inch. However...heavier amounts to around one inch may occur. Movement of these showers and thunderstorms will be to the east and northeast at 5 to 10 mph.

×

10-Day Weather Forecast

×

Almanac

Astronomiya

Jul. 06, 2015 Rise Set
Actual Time
Civil Twilight
Nautical Twilight
Astronomical Twilight
Buwan
Length Of Visible Light
Haba ng Araw
Tomorrow will be .
, % of the Moon is Illuminated

Today's Extremes

State Highs State Lows

Community

WunderPhotos

Upload Photos

1,835,625 photos uploaded!

WunderBlogs® & News

Nearby

Air Quality

  Air Quality AQ Index Pollutant
Not available.

Snow Depth

Station Depth Elevation

Earthquake Activity

Siyudad Distance Mag. Time & Date
Minimum magnitude displayed is 2.5.

Coastal Water Temperatures

lugar Temparatura

Stations

Nearby Weather Stations

Station Location Temp Windchill Hamog Humidito Hangin Precip. Elev Bago Type